Crown Of Scandinavia — OXRA6 — position and weather

sailwx.info

Track history (hours):
 
Tides and Currents Weather Stations Pressure Air Temp Water Temp Dewpoint Dewpoint Depression Visibility Wind Speed Wind Dir Waves Ship Positions

Crown Of Scandinavia

Last reported at 2017-Oct-20 19:30 UTC. Time now 2017-Oct-20 19:50 UTC.
Position N 58°38' E 010°36'.

Length 171 m; draft 6.3 m.

Type: Ship. MMSI: 219592000.

Date/timePositionNaut miles runAvg speedWind from/ knotsBaromVisibWave heightAir tempDewpointWater temp
2017-Oct-20 19:30N 58°38' E 010°36'815.7
2017-Oct-20 19:00N 58°46' E 010°34'816.2
2017-Oct-20 18:30N 58°54' E 010°35'816.7
2017-Oct-20 18:00N 59°02' E 010°37'917.2
2017-Oct-20 17:30N 59°11' E 010°38'917.5
2017-Oct-20 17:00N 59°19' E 010°35'917.3
2017-Oct-20 16:30N 59°28' E 010°33'917.1
2017-Oct-20 16:00N 59°36' E 010°38'714.5
2017-Oct-20 15:30N 59°43' E 010°34'816.4
2017-Oct-20 15:00N 59°51' E 010°37'5 4.8
2017-Oct-20 14:00N 59°54' E 010°45'0 0.0
2017-Oct-20 13:30N 59°54' E 010°45'0 0.0
2017-Oct-20 13:00N 59°54' E 010°45'0 0.0
2017-Oct-20 12:30N 59°54' E 010°45'0 0.0
2017-Oct-20 12:00N 59°54' E 010°45'0 0.0
2017-Oct-20 11:30N 59°54' E 010°45'0 0.0
2017-Oct-20 11:00N 59°54' E 010°45'0 0.0
2017-Oct-20 10:30N 59°54' E 010°45'0 0.0
2017-Oct-20 10:00N 59°54' E 010°45'0 0.0
2017-Oct-20 09:30N 59°54' E 010°45'0 0.0
2017-Oct-20 09:00N 59°54' E 010°45'0 0.0
2017-Oct-20 08:30N 59°54' E 010°45'0 0.0
2017-Oct-20 08:00N 59°54' E 010°45'1 1.2
2017-Oct-20 07:30N 59°54' E 010°43'612.8
2017-Oct-20 07:01N 59°49' E 010°35'815.4
2017-Oct-20 06:30N 59°42' E 010°36'714.1
2017-Oct-20 06:00N 59°35' E 010°38'815.0
2017-Oct-20 05:30N 59°27' E 010°34'815.1
2017-Oct-20 05:00N 59°20' E 010°36'815.1
2017-Oct-20 04:30N 59°13' E 010°38'815.3
2017-Oct-20 04:00N 59°05' E 010°40'816.1
2017-Oct-20 03:30N 58°57' E 010°43'815.6
2017-Oct-20 03:00N 58°49' E 010°45'816.2
2017-Oct-20 02:30N 58°41' E 010°48'816.5
2017-Oct-20 02:00N 58°33' E 010°50'816.3
2017-Oct-20 01:30N 58°25' E 010°54'816.6
2017-Oct-20 01:00N 58°17' E 010°59'816.5
2017-Oct-20 00:30N 58°10' E 011°04'816.4
2017-Oct-20 00:00N 58°02' E 011°08'815.9
2017-Oct-19 23:29N 57°54' E 011°12'816.0
2017-Oct-19 23:00N 57°46' E 011°17'816.0
2017-Oct-19 22:30N 57°39' E 011°21'816.4
2017-Oct-19 22:00N 57°31' E 011°26'816.4
2017-Oct-19 21:30N 57°23' E 011°31'815.9
2017-Oct-19 21:00N 57°16' E 011°36'816.1
2017-Oct-19 20:30N 57°08' E 011°40'1115.7
2017-Oct-19 19:48N 56°58' E 011°48'4915.5
2017-Oct-19 16:40N 56°14' E 012°26'316.7
2017-Oct-19 16:30N 56°12' E 012°28'917.9
2017-Oct-19 16:00N 56°04' E 012°38'816.4
2017-Oct-19 15:30N 55°57' E 012°43'815.9
2017-Oct-19 15:00N 55°49' E 012°43'714.0
2017-Oct-19 14:31N 55°43' E 012°37'1 1.9
2017-Oct-19 13:59N 55°42' E 012°36'0 0.0
2017-Oct-19 13:29N 55°42' E 012°36'0 0.0
2017-Oct-19 12:59N 55°42' E 012°36'0 0.0
2017-Oct-19 12:29N 55°42' E 012°36'0 0.0
2017-Oct-19 11:59N 55°42' E 012°36'0 0.0
2017-Oct-19 11:29N 55°42' E 012°36'0 0.0
2017-Oct-19 10:59N 55°42' E 012°36'0 0.0
2017-Oct-19 10:29N 55°42' E 012°36'0 0.0
2017-Oct-19 09:59N 55°42' E 012°36'0 0.0
2017-Oct-19 09:29N 55°42' E 012°36'0 0.0
2017-Oct-19 08:59N 55°42' E 012°36'0 0.0
2017-Oct-19 08:29N 55°42' E 012°36'0 0.0
2017-Oct-19 08:00N 55°42' E 012°36'2 4.7
2017-Oct-19 07:30N 55°44' E 012°39'714.6
2017-Oct-19 07:00N 55°51' E 012°41'714.8
2017-Oct-19 06:31N 55°58' E 012°40'714.3
2017-Oct-19 06:00N 56°05' E 012°35'815.1
2017-Oct-19 05:30N 56°10' E 012°26'4215.7
2017-Oct-19 02:48N 56°48' E 011°49'516.4
2017-Oct-19 02:31N 56°52' E 011°46'816.5
2017-Oct-19 02:00N 56°60' E 011°41'816.5
2017-Oct-19 01:30N 57°08' E 011°36'816.2
2017-Oct-19 01:00N 57°15' E 011°30'816.1
2017-Oct-19 00:30N 57°23' E 011°25'815.9
2017-Oct-19 00:01N 57°30' E 011°19'816.0
2017-Oct-18 23:30N 57°37' E 011°13'816.1
2017-Oct-18 23:00N 57°45' E 011°10'816.1
2017-Oct-18 22:31N 57°53' E 011°04'816.0
2017-Oct-18 21:59N 58°00' E 010°59'816.0
2017-Oct-18 21:30N 58°08' E 010°53'816.2
2017-Oct-18 21:00N 58°15' E 010°48'816.3
2017-Oct-18 20:30N 58°23' E 010°43'815.8
2017-Oct-18 20:00N 58°30' E 010°38'815.6
2017-Oct-18 19:30N 58°38' E 010°36'816.0
2017-Oct-18 19:00N 58°46' E 010°35'816.7
2017-Oct-18 18:31N 58°54' E 010°36'816.7
2017-Oct-18 18:01N 59°03' E 010°37'917.0
2017-Oct-18 17:31N 59°11' E 010°38'917.4
2017-Oct-18 17:00N 59°20' E 010°35'917.1
2017-Oct-18 16:31N 59°28' E 010°34'816.4
2017-Oct-18 16:01N 59°36' E 010°38'714.4
2017-Oct-18 15:31N 59°43' E 010°34'816.3
2017-Oct-18 15:01N 59°51' E 010°36'5 5.1
2017-Oct-18 13:58N 59°54' E 010°45'0 0.0
2017-Oct-18 13:28N 59°54' E 010°45'0 0.0
2017-Oct-18 12:58N 59°54' E 010°45'0 0.0
2017-Oct-18 12:28N 59°54' E 010°45'0 0.0
2017-Oct-18 11:58N 59°54' E 010°45'0 0.0
2017-Oct-18 11:28N 59°54' E 010°45'0 0.0
2017-Oct-18 10:58N 59°54' E 010°45'0 0.0
2017-Oct-18 10:28N 59°54' E 010°45'0 0.0
2017-Oct-18 09:58N 59°54' E 010°45'0 0.0
2017-Oct-18 09:28N 59°54' E 010°45'0 0.0
2017-Oct-18 08:58N 59°54' E 010°45'0 0.0
2017-Oct-18 08:28N 59°54' E 010°45'0 0.0
2017-Oct-18 07:58N 59°54' E 010°45'1 1.3
2017-Oct-18 07:30N 59°54' E 010°43'714.4
2017-Oct-18 07:00N 59°48' E 010°35'815.4
2017-Oct-18 06:30N 59°41' E 010°37'714.7
2017-Oct-18 06:01N 59°33' E 010°38'917.1
2017-Oct-18 05:31N 59°25' E 010°34'917.2
2017-Oct-18 05:01N 59°17' E 010°37'917.2
2017-Oct-18 04:31N 59°08' E 010°40'816.4
2017-Oct-18 04:00N 58°60' E 010°41'815.5
2017-Oct-18 03:30N 58°52' E 010°43'815.6
2017-Oct-18 03:00N 58°44' E 010°45'815.2
2017-Oct-18 02:30N 58°37' E 010°47'816.0
2017-Oct-18 02:00N 58°29' E 010°50'816.6
2017-Oct-18 01:30N 58°21' E 010°50'816.6
2017-Oct-18 01:00N 58°12' E 010°47'816.0
2017-Oct-18 00:30N 58°05' E 010°44'816.0
2017-Oct-18 00:00N 57°57' E 010°40'814.6
2017-Oct-17 23:28N 57°50' E 010°48'715.2
2017-Oct-17 23:00N 57°45' E 010°57'816.0
2017-Oct-17 22:30N 57°40' E 011°08'916.7
2017-Oct-17 21:59N 57°35' E 011°21'817.5
2017-Oct-17 21:30N 57°27' E 011°27'917.2
2017-Oct-17 21:00N 57°19' E 011°33'917.0
2017-Oct-17 20:29N 57°11' E 011°39'6216.4
2017-Oct-17 16:42N 56°14' E 012°26'316.7
2017-Oct-17 16:30N 56°11' E 012°29'816.9
2017-Oct-17 16:00N 56°05' E 012°38'815.9
2017-Oct-17 15:30N 55°57' E 012°43'816.9
2017-Oct-17 15:00N 55°49' E 012°44'714.3
2017-Oct-17 14:30N 55°43' E 012°37'1 1.8
2017-Oct-17 14:00N 55°42' E 012°36'0 0.0
2017-Oct-17 13:29N 55°42' E 012°36'0 0.0
2017-Oct-17 12:59N 55°42' E 012°36'0 0.0
2017-Oct-17 12:29N 55°42' E 012°36'0 0.0
2017-Oct-17 11:59N 55°42' E 012°36'0 0.0
2017-Oct-17 11:29N 55°42' E 012°36'0 0.0
2017-Oct-17 10:59N 55°42' E 012°36'0 0.0
2017-Oct-17 10:29N 55°42' E 012°36'0 0.0
2017-Oct-17 09:59N 55°42' E 012°36'0 0.0
2017-Oct-17 09:29N 55°42' E 012°36'0 0.0
2017-Oct-17 08:59N 55°42' E 012°36'0 0.0
2017-Oct-17 08:29N 55°42' E 012°36'0 0.0
2017-Oct-17 07:59N 55°42' E 012°36'1 1.8
2017-Oct-17 07:30N 55°43' E 012°37'713.4
2017-Oct-17 07:01N 55°49' E 012°42'815.5
2017-Oct-17 06:30N 55°56' E 012°39'714.9
2017-Oct-17 06:00N 56°04' E 012°38'815.6
2017-Oct-17 05:30N 56°09' E 012°28'917.4
2017-Oct-17 05:00N 56°16' E 012°17'917.4
2017-Oct-17 04:30N 56°22' E 012°07'816.4
2017-Oct-17 04:00N 56°29' E 011°58'2517.2
2017-Oct-17 02:32N 56°53' E 011°46'417.8
2017-Oct-17 02:18N 56°57' E 011°44'815.9
2017-Oct-17 01:49N 57°04' E 011°39'516.1
2017-Oct-17 01:30N 57°09' E 011°35'816.3
2017-Oct-17 01:00N 57°17' E 011°30'816.2
2017-Oct-17 00:30N 57°25' E 011°30'714.6
2017-Oct-17 00:00N 57°31' E 011°23'816.3
2017-Oct-16 23:30N 57°38' E 011°15'916.8
2017-Oct-16 23:00N 57°46' E 011°09'816.2
2017-Oct-16 22:30N 57°53' E 011°03'816.3
2017-Oct-16 22:00N 58°01' E 010°58'816.3
2017-Oct-16 21:29N 58°09' E 010°52'816.4
2017-Oct-16 21:00N 58°16' E 010°47'815.7
2017-Oct-16 20:30N 58°24' E 010°42'815.5
2017-Oct-16 20:00N 58°31' E 010°38'815.8
2017-Oct-16 19:30N 58°39' E 010°36'816.6
2017-Oct-16 19:00N 58°47' E 010°35'816.9
2017-Oct-16 18:30N 58°55' E 010°37'816.8
2017-Oct-16 18:00N 59°04' E 010°38'816.5
2017-Oct-16 17:30N 59°12' E 010°38'816.7
2017-Oct-16 17:00N 59°20' E 010°35'816.7
2017-Oct-16 16:30N 59°29' E 010°34'816.5
2017-Oct-16 16:00N 59°37' E 010°38'714.5
2017-Oct-16 15:30N 59°44' E 010°34'816.0
2017-Oct-16 15:00N 59°51' E 010°37'5 9.5
2017-Oct-16 14:30N 59°54' E 010°45'0 0.1
2017-Oct-16 13:29N 59°54' E 010°45'0 0.0
2017-Oct-16 12:59N 59°54' E 010°45'0 0.0
2017-Oct-16 12:29N 59°54' E 010°45'0 0.0
2017-Oct-16 11:59N 59°54' E 010°45'0 0.0
2017-Oct-16 11:29N 59°54' E 010°45'0 0.0
2017-Oct-16 10:59N 59°54' E 010°45'0 0.0
2017-Oct-16 10:29N 59°54' E 010°45'0 0.0
2017-Oct-16 09:59N 59°54' E 010°45'0 0.0
2017-Oct-16 09:29N 59°54' E 010°45'0 0.0
2017-Oct-16 08:59N 59°54' E 010°45'0 0.0
2017-Oct-16 08:29N 59°54' E 010°45'0 0.0
2017-Oct-16 08:00N 59°54' E 010°45'0 0.4
2017-Oct-16 07:30N 59°54' E 010°45'510.6
2017-Oct-16 07:00N 59°51' E 010°37'815.6
2017-Oct-16 06:30N 59°43' E 010°35'713.8
2017-Oct-16 06:00N 59°36' E 010°38'816.1
2017-Oct-16 05:30N 59°28' E 010°34'816.6
2017-Oct-16 05:00N 59°20' E 010°36'917.1
2017-Oct-16 04:30N 59°12' E 010°39'816.7
2017-Oct-16 04:00N 59°03' E 010°39'816.2
2017-Oct-16 03:31N 58°55' E 010°39'816.3
2017-Oct-16 03:00N 58°47' E 010°38'816.4
2017-Oct-16 02:30N 58°39' E 010°37'816.5
2017-Oct-16 02:00N 58°31' E 010°38'816.4
2017-Oct-16 01:30N 58°23' E 010°42'2715.7
2017-Oct-15 23:46N 57°60' E 011°10'516.7
2017-Oct-15 23:29N 57°56' E 011°16'816.4
2017-Oct-15 23:01N 57°49' E 011°22'816.6
2017-Oct-15 22:30N 57°41' E 011°27'816.6
2017-Oct-15 22:01N 57°33' E 011°33'816.2
2017-Oct-15 21:30N 57°26' E 011°39'816.5
2017-Oct-15 21:00N 57°19' E 011°46'917.2
2017-Oct-15 20:28N 57°10' E 011°54'917.6
2017-Oct-15 19:58N 57°02' E 012°00'817.2
2017-Oct-15 19:30N 56°55' E 012°07'1116.7
2017-Oct-15 18:48N 56°44' E 012°13'516.9
2017-Oct-15 18:30N 56°39' E 012°15'715.1
2017-Oct-15 18:00N 56°32' E 012°19'815.8
2017-Oct-15 17:30N 56°24' E 012°22'816.5
2017-Oct-15 17:00N 56°16' E 012°26'815.9
2017-Oct-15 16:30N 56°09' E 012°31'815.1
2017-Oct-15 16:01N 56°03' E 012°40'715.0
2017-Oct-15 15:30N 55°56' E 012°43'815.8
2017-Oct-15 15:00N 55°48' E 012°43'7 7.1
2017-Oct-15 14:00N 55°42' E 012°36'0 0.0
2017-Oct-15 13:30N 55°42' E 012°36'0 0.0
2017-Oct-15 13:00N 55°42' E 012°36'0 0.0
2017-Oct-15 12:30N 55°42' E 012°36'0 0.0
2017-Oct-15 12:00N 55°42' E 012°36'0 0.0
2017-Oct-15 11:30N 55°42' E 012°36'0 0.0
2017-Oct-15 11:00N 55°42' E 012°36'0 0.0
2017-Oct-15 10:30N 55°42' E 012°36'0 0.0
2017-Oct-15 10:00N 55°42' E 012°36'0 0.0
2017-Oct-15 09:30N 55°42' E 012°36'0 0.0
2017-Oct-15 09:00N 55°42' E 012°36'0 0.0
2017-Oct-15 08:30N 55°42' E 012°36'0 0.0
2017-Oct-15 08:00N 55°42' E 012°36'0 0.8
2017-Oct-15 07:31N 55°42' E 012°36'510.2
2017-Oct-15 07:00N 55°47' E 012°41'815.7
2017-Oct-15 06:30N 55°54' E 012°39'816.5
2017-Oct-15 06:01N 56°03' E 012°39'815.6
2017-Oct-15 05:30N 56°08' E 012°29'816.2
2017-Oct-15 05:00N 56°16' E 012°25'815.9
2017-Oct-15 04:30N 56°23' E 012°21'816.2
2017-Oct-15 04:00N 56°31' E 012°16'816.7
2017-Oct-15 03:30N 56°39' E 012°12'816.1
2017-Oct-15 03:00N 56°47' E 012°07'816.7
2017-Oct-15 02:30N 56°55' E 012°03'2416.3
2017-Oct-15 01:04N 57°17' E 011°50'116.7
2017-Oct-15 01:00N 57°18' E 011°49'917.3
2017-Oct-15 00:30N 57°25' E 011°40'917.5
2017-Oct-15 00:00N 57°33' E 011°33'917.1
2017-Oct-14 23:30N 57°41' E 011°28'916.9
2017-Oct-14 23:00N 57°49' E 011°22'917.0
2017-Oct-14 22:30N 57°57' E 011°16'816.0
2017-Oct-14 21:58N 58°05' E 011°11'716.1
2017-Oct-14 21:30N 58°12' E 011°06'816.2
2017-Oct-14 21:00N 58°20' E 011°00'816.6
2017-Oct-14 20:30N 58°27' E 010°54'816.8
2017-Oct-14 20:00N 58°35' E 010°47'816.4
2017-Oct-14 19:30N 58°42' E 010°40'816.3
2017-Oct-14 19:00N 58°50' E 010°35'816.2
2017-Oct-14 18:30N 58°58' E 010°36'816.5
2017-Oct-14 18:00N 59°06' E 010°38'816.6
2017-Oct-14 17:30N 59°15' E 010°37'816.3
2017-Oct-14 17:00N 59°23' E 010°34'816.3
2017-Oct-14 16:30N 59°31' E 010°35'816.4
2017-Oct-14 16:00N 59°39' E 010°37'713.6
2017-Oct-14 15:30N 59°45' E 010°33'815.6
2017-Oct-14 15:01N 59°53' E 010°39'3 6.6
2017-Oct-14 14:30N 59°54' E 010°45'0 0.0
2017-Oct-14 13:58N 59°54' E 010°45'0 0.0
2017-Oct-14 13:28N 59°54' E 010°45'0 0.0
2017-Oct-14 12:58N 59°54' E 010°45'0 0.0
2017-Oct-14 12:28N 59°54' E 010°45'0 0.0
2017-Oct-14 11:58N 59°54' E 010°45'0 0.0
2017-Oct-14 11:28N 59°54' E 010°45'0 0.0
2017-Oct-14 10:58N 59°54' E 010°45'0 0.0
2017-Oct-14 10:28N 59°54' E 010°45'0 0.0
2017-Oct-14 09:58N 59°54' E 010°45'0 0.0
2017-Oct-14 09:28N 59°54' E 010°45'0 0.0
2017-Oct-14 08:58N 59°54' E 010°45'0 0.0
2017-Oct-14 08:28N 59°54' E 010°45'0 0.0
2017-Oct-14 07:58N 59°54' E 010°45'0 0.5
2017-Oct-14 07:31N 59°54' E 010°45'510.6
2017-Oct-14 07:00N 59°51' E 010°37'815.5
2017-Oct-14 06:31N 59°43' E 010°35'714.2
2017-Oct-14 06:00N 59°36' E 010°38'816.2
2017-Oct-14 05:30N 59°28' E 010°34'816.3
2017-Oct-14 05:00N 59°20' E 010°36'816.8
2017-Oct-14 04:30N 59°12' E 010°39'816.6
2017-Oct-14 04:00N 59°03' E 010°41'816.0
2017-Oct-14 03:30N 58°56' E 010°43'816.1
2017-Oct-14 03:00N 58°47' E 010°44'816.3
2017-Oct-14 02:30N 58°39' E 010°44'816.6
2017-Oct-14 02:00N 58°31' E 010°45'917.5
2017-Oct-14 01:30N 58°22' E 010°45'917.2
2017-Oct-14 01:00N 58°14' E 010°50'816.3
2017-Oct-14 00:29N 58°07' E 010°58'816.6
2017-Oct-14 00:00N 57°60' E 011°06'916.4
2017-Oct-13 23:28N 57°52' E 011°14'715.9
2017-Oct-13 23:00N 57°45' E 011°18'816.2
2017-Oct-13 22:30N 57°38' E 011°23'816.3
2017-Oct-13 22:00N 57°30' E 011°27'816.6
2017-Oct-13 21:31N 57°22' E 011°32'816.0
2017-Oct-13 21:00N 57°14' E 011°38'816.3
2017-Oct-13 20:30N 57°06' E 011°42'3316.3
2017-Oct-13 18:30N 56°37' E 012°07'1516.0
2017-Oct-13 17:35N 56°24' E 012°18'415.4
2017-Oct-13 17:20N 56°20' E 012°21'616.8
2017-Oct-13 17:00N 56°15' E 012°25'816.7
2017-Oct-13 16:30N 56°08' E 012°32'917.3
2017-Oct-13 16:00N 56°01' E 012°41'816.3
2017-Oct-13 15:30N 55°53' E 012°44'816.3
2017-Oct-13 15:00N 55°45' E 012°41'4 7.5
2017-Oct-13 14:30N 55°42' E 012°36'0 0.0
2017-Oct-13 14:00N 55°42' E 012°36'0 0.0
2017-Oct-13 13:30N 55°42' E 012°36'0 0.0
2017-Oct-13 13:00N 55°42' E 012°36'0 0.0
2017-Oct-13 12:30N 55°42' E 012°36'0 0.0
2017-Oct-13 12:00N 55°42' E 012°36'0 0.0
2017-Oct-13 11:30N 55°42' E 012°36'0 0.0
2017-Oct-13 11:00N 55°42' E 012°36'0 0.0
2017-Oct-13 10:30N 55°42' E 012°36'0 0.0
2017-Oct-13 10:00N 55°42' E 012°36'0 0.0
2017-Oct-13 09:30N 55°42' E 012°36'0 0.0
2017-Oct-13 09:00N 55°42' E 012°36'0 0.0
2017-Oct-13 08:30N 55°42' E 012°36'0 0.0
2017-Oct-13 08:00N 55°42' E 012°36'0 0.7
2017-Oct-13 07:31N 55°42' E 012°36'611.6
2017-Oct-13 07:00N 55°47' E 012°42'714.9
2017-Oct-13 06:30N 55°54' E 012°39'815.7
2017-Oct-13 06:00N 56°02' E 012°39'816.6
2017-Oct-13 05:30N 56°08' E 012°29'816.4
2017-Oct-13 05:00N 56°14' E 012°19'5816.4
2017-Oct-13 01:28N 57°08' E 011°37'817.1
2017-Oct-13 01:00N 57°15' E 011°33'817.0
2017-Oct-13 00:30N 57°23' E 011°27'917.4
2017-Oct-12 23:59N 57°32' E 011°22'817.3
2017-Oct-12 23:30N 57°39' E 011°14'917.6
2017-Oct-12 22:59N 57°47' E 011°08'917.4
2017-Oct-12 22:29N 57°56' E 011°02'815.6
2017-Oct-12 22:00N 58°03' E 010°56'815.5
2017-Oct-12 21:30N 58°10' E 010°52'815.4
2017-Oct-12 21:00N 58°17' E 010°47'814.8
2017-Oct-12 20:28N 58°25' E 010°42'714.8
2017-Oct-12 20:00N 58°31' E 010°37'714.9
2017-Oct-12 19:30N 58°38' E 010°36'816.0
2017-Oct-12 19:00N 58°46' E 010°35'816.4
2017-Oct-12 18:30N 58°55' E 010°36'816.6
2017-Oct-12 18:00N 59°03' E 010°37'917.3
2017-Oct-12 17:30N 59°11' E 010°38'917.4
2017-Oct-12 17:00N 59°20' E 010°35'816.3
2017-Oct-12 16:30N 59°28' E 010°34'917.1
2017-Oct-12 16:00N 59°36' E 010°38'714.6
2017-Oct-12 15:30N 59°43' E 010°34'816.4
2017-Oct-12 15:00N 59°52' E 010°37'5 9.4
2017-Oct-12 14:30N 59°54' E 010°45'0 0.2
2017-Oct-12 14:00N 59°54' E 010°45'0 0.0
2017-Oct-12 13:30N 59°54' E 010°45'0 0.0
2017-Oct-12 13:00N 59°54' E 010°45'0 0.0
2017-Oct-12 12:30N 59°54' E 010°45'0 0.0
2017-Oct-12 12:00N 59°54' E 010°45'0 0.0
2017-Oct-12 11:30N 59°54' E 010°45'0 0.0
2017-Oct-12 11:00N 59°54' E 010°45'0 0.0
2017-Oct-12 10:30N 59°54' E 010°45'0 0.0
2017-Oct-12 10:00N 59°54' E 010°45'0 0.0
2017-Oct-12 09:30N 59°54' E 010°45'0 0.0
2017-Oct-12 09:00N 59°54' E 010°45'0 0.0
2017-Oct-12 08:30N 59°54' E 010°45'0 0.0
2017-Oct-12 08:00N 59°54' E 010°45'0 0.4
2017-Oct-12 07:30N 59°54' E 010°45'611.5
2017-Oct-12 07:00N 59°50' E 010°36'815.3
2017-Oct-12 06:30N 59°43' E 010°35'713.3
2017-Oct-12 06:00N 59°36' E 010°38'714.6
2017-Oct-12 05:30N 59°29' E 010°35'714.9
2017-Oct-12 05:00N 59°22' E 010°35'815.4
2017-Oct-12 04:30N 59°14' E 010°38'815.6
2017-Oct-12 04:00N 59°06' E 010°40'816.2
2017-Oct-12 03:30N 58°58' E 010°42'816.1
2017-Oct-12 03:00N 58°50' E 010°44'815.7
2017-Oct-12 02:30N 58°43' E 010°47'816.1
2017-Oct-12 02:00N 58°35' E 010°51'916.9
2017-Oct-12 01:30N 58°27' E 010°54'816.7
2017-Oct-12 01:00N 58°19' E 010°59'816.0
2017-Oct-12 00:30N 58°11' E 011°04'815.8
2017-Oct-11 23:58N 58°03' E 011°09'816.0
2017-Oct-11 23:30N 57°56' E 011°13'816.0
2017-Oct-11 23:00N 57°48' E 011°18'816.3
2017-Oct-11 22:30N 57°40' E 011°21'816.6
2017-Oct-11 22:01N 57°33' E 011°26'816.4
2017-Oct-11 21:30N 57°25' E 011°31'817.0
2017-Oct-11 21:00N 57°17' E 011°35'816.8
2017-Oct-11 20:30N 57°08' E 011°40'5816.2
2017-Oct-11 16:56N 56°16' E 012°24'82 4.9
2017-Oct-11 00:00N 57°33' E 011°31'816.6
2017-Oct-10 23:30N 57°41' E 011°27'916.8
2017-Oct-10 23:00N 57°49' E 011°22'816.3
2017-Oct-10 22:30N 57°56' E 011°15'816.8
2017-Oct-10 22:00N 58°04' E 011°08'816.8
2017-Oct-10 21:30N 58°11' E 011°01'815.8
2017-Oct-10 21:00N 58°19' E 010°55'815.2
2017-Oct-10 20:30N 58°26' E 010°50'815.3
2017-Oct-10 20:00N 58°33' E 010°47'815.7
2017-Oct-10 19:30N 58°41' E 010°46'  
Track history (hours):
 
Tides and Currents Weather Stations Pressure Air Temp Water Temp Dewpoint Dewpoint Depression Visibility Wind Speed Wind Dir Waves Ship Positions

Crown Of Scandinavia

Last reported at 2017-Oct-20 19:30 UTC. Time now 2017-Oct-20 19:50 UTC.
Position N 58°38' E 010°36'.

Length 171 m; draft 6.3 m.

Type: Ship. MMSI: 219592000.

Date/timePositionNaut miles runAvg speedWind from/ knotsBaromVisibWave heightAir tempDewpointWater temp
2017-Oct-20 19:30N 58°38' E 010°36'815.7
2017-Oct-20 19:00N 58°46' E 010°34'816.2
2017-Oct-20 18:30N 58°54' E 010°35'816.7
2017-Oct-20 18:00N 59°02' E 010°37'917.2
2017-Oct-20 17:30N 59°11' E 010°38'917.5
2017-Oct-20 17:00N 59°19' E 010°35'917.3
2017-Oct-20 16:30N 59°28' E 010°33'917.1
2017-Oct-20 16:00N 59°36' E 010°38'714.5
2017-Oct-20 15:30N 59°43' E 010°34'816.4
2017-Oct-20 15:00N 59°51' E 010°37'5 4.8
2017-Oct-20 14:00N 59°54' E 010°45'0 0.0
2017-Oct-20 13:30N 59°54' E 010°45'0 0.0
2017-Oct-20 13:00N 59°54' E 010°45'0 0.0
2017-Oct-20 12:30N 59°54' E 010°45'0 0.0
2017-Oct-20 12:00N 59°54' E 010°45'0 0.0
2017-Oct-20 11:30N 59°54' E 010°45'0 0.0
2017-Oct-20 11:00N 59°54' E 010°45'0 0.0
2017-Oct-20 10:30N 59°54' E 010°45'0 0.0
2017-Oct-20 10:00N 59°54' E 010°45'0 0.0
2017-Oct-20 09:30N 59°54' E 010°45'0 0.0
2017-Oct-20 09:00N 59°54' E 010°45'0 0.0
2017-Oct-20 08:30N 59°54' E 010°45'0 0.0
2017-Oct-20 08:00N 59°54' E 010°45'1 1.2
2017-Oct-20 07:30N 59°54' E 010°43'612.8
2017-Oct-20 07:01N 59°49' E 010°35'815.4
2017-Oct-20 06:30N 59°42' E 010°36'714.1
2017-Oct-20 06:00N 59°35' E 010°38'815.0
2017-Oct-20 05:30N 59°27' E 010°34'815.1
2017-Oct-20 05:00N 59°20' E 010°36'815.1
2017-Oct-20 04:30N 59°13' E 010°38'815.3
2017-Oct-20 04:00N 59°05' E 010°40'816.1
2017-Oct-20 03:30N 58°57' E 010°43'815.6
2017-Oct-20 03:00N 58°49' E 010°45'816.2
2017-Oct-20 02:30N 58°41' E 010°48'816.5
2017-Oct-20 02:00N 58°33' E 010°50'816.3
2017-Oct-20 01:30N 58°25' E 010°54'816.6
2017-Oct-20 01:00N 58°17' E 010°59'816.5
2017-Oct-20 00:30N 58°10' E 011°04'816.4
2017-Oct-20 00:00N 58°02' E 011°08'815.9
2017-Oct-19 23:29N 57°54' E 011°12'816.0
2017-Oct-19 23:00N 57°46' E 011°17'816.0
2017-Oct-19 22:30N 57°39' E 011°21'816.4
2017-Oct-19 22:00N 57°31' E 011°26'816.4
2017-Oct-19 21:30N 57°23' E 011°31'815.9
2017-Oct-19 21:00N 57°16' E 011°36'816.1
2017-Oct-19 20:30N 57°08' E 011°40'1115.7
2017-Oct-19 19:48N 56°58' E 011°48'4915.5
2017-Oct-19 16:40N 56°14' E 012°26'316.7
2017-Oct-19 16:30N 56°12' E 012°28'917.9
2017-Oct-19 16:00N 56°04' E 012°38'816.4
2017-Oct-19 15:30N 55°57' E 012°43'815.9
2017-Oct-19 15:00N 55°49' E 012°43'714.0
2017-Oct-19 14:31N 55°43' E 012°37'1 1.9
2017-Oct-19 13:59N 55°42' E 012°36'0 0.0
2017-Oct-19 13:29N 55°42' E 012°36'0 0.0
2017-Oct-19 12:59N 55°42' E 012°36'0 0.0
2017-Oct-19 12:29N 55°42' E 012°36'0 0.0
2017-Oct-19 11:59N 55°42' E 012°36'0 0.0
2017-Oct-19 11:29N 55°42' E 012°36'0 0.0
2017-Oct-19 10:59N 55°42' E 012°36'0 0.0
2017-Oct-19 10:29N 55°42' E 012°36'0 0.0
2017-Oct-19 09:59N 55°42' E 012°36'0 0.0
2017-Oct-19 09:29N 55°42' E 012°36'0 0.0
2017-Oct-19 08:59N 55°42' E 012°36'0 0.0
2017-Oct-19 08:29N 55°42' E 012°36'0 0.0
2017-Oct-19 08:00N 55°42' E 012°36'2 4.7
2017-Oct-19 07:30N 55°44' E 012°39'714.6
2017-Oct-19 07:00N 55°51' E 012°41'714.8
2017-Oct-19 06:31N 55°58' E 012°40'714.3
2017-Oct-19 06:00N 56°05' E 012°35'815.1
2017-Oct-19 05:30N 56°10' E 012°26'4215.7
2017-Oct-19 02:48N 56°48' E 011°49'516.4
2017-Oct-19 02:31N 56°52' E 011°46'816.5
2017-Oct-19 02:00N 56°60' E 011°41'816.5
2017-Oct-19 01:30N 57°08' E 011°36'816.2
2017-Oct-19 01:00N 57°15' E 011°30'816.1
2017-Oct-19 00:30N 57°23' E 011°25'815.9
2017-Oct-19 00:01N 57°30' E 011°19'816.0
2017-Oct-18 23:30N 57°37' E 011°13'816.1
2017-Oct-18 23:00N 57°45' E 011°10'816.1
2017-Oct-18 22:31N 57°53' E 011°04'816.0
2017-Oct-18 21:59N 58°00' E 010°59'816.0
2017-Oct-18 21:30N 58°08' E 010°53'816.2
2017-Oct-18 21:00N 58°15' E 010°48'816.3
2017-Oct-18 20:30N 58°23' E 010°43'815.8
2017-Oct-18 20:00N 58°30' E 010°38'815.6
2017-Oct-18 19:30N 58°38' E 010°36'816.0
2017-Oct-18 19:00N 58°46' E 010°35'816.7
2017-Oct-18 18:31N 58°54' E 010°36'816.7
2017-Oct-18 18:01N 59°03' E 010°37'917.0
2017-Oct-18 17:31N 59°11' E 010°38'917.4
2017-Oct-18 17:00N 59°20' E 010°35'917.1
2017-Oct-18 16:31N 59°28' E 010°34'816.4
2017-Oct-18 16:01N 59°36' E 010°38'714.4
2017-Oct-18 15:31N 59°43' E 010°34'816.3
2017-Oct-18 15:01N 59°51' E 010°36'5 5.1
2017-Oct-18 13:58N 59°54' E 010°45'0 0.0
2017-Oct-18 13:28N 59°54' E 010°45'0 0.0
2017-Oct-18 12:58N 59°54' E 010°45'0 0.0
2017-Oct-18 12:28N 59°54' E 010°45'0 0.0
2017-Oct-18 11:58N 59°54' E 010°45'0 0.0
2017-Oct-18 11:28N 59°54' E 010°45'0 0.0
2017-Oct-18 10:58N 59°54' E 010°45'0 0.0
2017-Oct-18 10:28N 59°54' E 010°45'0 0.0
2017-Oct-18 09:58N 59°54' E 010°45'0 0.0
2017-Oct-18 09:28N 59°54' E 010°45'0 0.0
2017-Oct-18 08:58N 59°54' E 010°45'0 0.0
2017-Oct-18 08:28N 59°54' E 010°45'0 0.0
2017-Oct-18 07:58N 59°54' E 010°45'1 1.3
2017-Oct-18 07:30N 59°54' E 010°43'714.4
2017-Oct-18 07:00N 59°48' E 010°35'815.4
2017-Oct-18 06:30N 59°41' E 010°37'714.7
2017-Oct-18 06:01N 59°33' E 010°38'917.1
2017-Oct-18 05:31N 59°25' E 010°34'917.2
2017-Oct-18 05:01N 59°17' E 010°37'917.2
2017-Oct-18 04:31N 59°08' E 010°40'816.4
2017-Oct-18 04:00N 58°60' E 010°41'815.5
2017-Oct-18 03:30N 58°52' E 010°43'815.6
2017-Oct-18 03:00N 58°44' E 010°45'815.2
2017-Oct-18 02:30N 58°37' E 010°47'816.0
2017-Oct-18 02:00N 58°29' E 010°50'816.6
2017-Oct-18 01:30N 58°21' E 010°50'816.6
2017-Oct-18 01:00N 58°12' E 010°47'816.0
2017-Oct-18 00:30N 58°05' E 010°44'816.0
2017-Oct-18 00:00N 57°57' E 010°40'814.6
2017-Oct-17 23:28N 57°50' E 010°48'715.2
2017-Oct-17 23:00N 57°45' E 010°57'816.0
2017-Oct-17 22:30N 57°40' E 011°08'916.7
2017-Oct-17 21:59N 57°35' E 011°21'817.5
2017-Oct-17 21:30N 57°27' E 011°27'917.2
2017-Oct-17 21:00N 57°19' E 011°33'917.0
2017-Oct-17 20:29N 57°11' E 011°39'6216.4
2017-Oct-17 16:42N 56°14' E 012°26'316.7
2017-Oct-17 16:30N 56°11' E 012°29'816.9
2017-Oct-17 16:00N 56°05' E 012°38'815.9
2017-Oct-17 15:30N 55°57' E 012°43'816.9
2017-Oct-17 15:00N 55°49' E 012°44'714.3
2017-Oct-17 14:30N 55°43' E 012°37'1 1.8
2017-Oct-17 14:00N 55°42' E 012°36'0 0.0
2017-Oct-17 13:29N 55°42' E 012°36'0 0.0
2017-Oct-17 12:59N 55°42' E 012°36'0 0.0
2017-Oct-17 12:29N 55°42' E 012°36'0 0.0
2017-Oct-17 11:59N 55°42' E 012°36'0 0.0
2017-Oct-17 11:29N 55°42' E 012°36'0 0.0
2017-Oct-17 10:59N 55°42' E 012°36'0 0.0
2017-Oct-17 10:29N 55°42' E 012°36'0 0.0
2017-Oct-17 09:59N 55°42' E 012°36'0 0.0
2017-Oct-17 09:29N 55°42' E 012°36'0 0.0
2017-Oct-17 08:59N 55°42' E 012°36'0 0.0
2017-Oct-17 08:29N 55°42' E 012°36'0 0.0
2017-Oct-17 07:59N 55°42' E 012°36'1 1.8
2017-Oct-17 07:30N 55°43' E 012°37'713.4
2017-Oct-17 07:01N 55°49' E 012°42'815.5
2017-Oct-17 06:30N 55°56' E 012°39'714.9
2017-Oct-17 06:00N 56°04' E 012°38'815.6
2017-Oct-17 05:30N 56°09' E 012°28'917.4
2017-Oct-17 05:00N 56°16' E 012°17'917.4
2017-Oct-17 04:30N 56°22' E 012°07'816.4
2017-Oct-17 04:00N 56°29' E 011°58'2517.2
2017-Oct-17 02:32N 56°53' E 011°46'417.8
2017-Oct-17 02:18N 56°57' E 011°44'815.9
2017-Oct-17 01:49N 57°04' E 011°39'516.1
2017-Oct-17 01:30N 57°09' E 011°35'816.3
2017-Oct-17 01:00N 57°17' E 011°30'816.2
2017-Oct-17 00:30N 57°25' E 011°30'714.6
2017-Oct-17 00:00N 57°31' E 011°23'816.3
2017-Oct-16 23:30N 57°38' E 011°15'916.8
2017-Oct-16 23:00N 57°46' E 011°09'816.2
2017-Oct-16 22:30N 57°53' E 011°03'816.3
2017-Oct-16 22:00N 58°01' E 010°58'816.3
2017-Oct-16 21:29N 58°09' E 010°52'816.4
2017-Oct-16 21:00N 58°16' E 010°47'815.7
2017-Oct-16 20:30N 58°24' E 010°42'815.5
2017-Oct-16 20:00N 58°31' E 010°38'815.8
2017-Oct-16 19:30N 58°39' E 010°36'816.6
2017-Oct-16 19:00N 58°47' E 010°35'816.9
2017-Oct-16 18:30N 58°55' E 010°37'816.8
2017-Oct-16 18:00N 59°04' E 010°38'816.5
2017-Oct-16 17:30N 59°12' E 010°38'816.7
2017-Oct-16 17:00N 59°20' E 010°35'816.7
2017-Oct-16 16:30N 59°29' E 010°34'816.5
2017-Oct-16 16:00N 59°37' E 010°38'714.5
2017-Oct-16 15:30N 59°44' E 010°34'816.0
2017-Oct-16 15:00N 59°51' E 010°37'5 9.5
2017-Oct-16 14:30N 59°54' E 010°45'0 0.1
2017-Oct-16 13:29N 59°54' E 010°45'0 0.0
2017-Oct-16 12:59N 59°54' E 010°45'0 0.0
2017-Oct-16 12:29N 59°54' E 010°45'0 0.0
2017-Oct-16 11:59N 59°54' E 010°45'0 0.0
2017-Oct-16 11:29N 59°54' E 010°45'0 0.0
2017-Oct-16 10:59N 59°54' E 010°45'0 0.0
2017-Oct-16 10:29N 59°54' E 010°45'0 0.0
2017-Oct-16 09:59N 59°54' E 010°45'0 0.0
2017-Oct-16 09:29N 59°54' E 010°45'0 0.0
2017-Oct-16 08:59N 59°54' E 010°45'0 0.0
2017-Oct-16 08:29N 59°54' E 010°45'0 0.0
2017-Oct-16 08:00N 59°54' E 010°45'0 0.4
2017-Oct-16 07:30N 59°54' E 010°45'510.6
2017-Oct-16 07:00N 59°51' E 010°37'815.6
2017-Oct-16 06:30N 59°43' E 010°35'713.8
2017-Oct-16 06:00N 59°36' E 010°38'816.1
2017-Oct-16 05:30N 59°28' E 010°34'816.6
2017-Oct-16 05:00N 59°20' E 010°36'917.1
2017-Oct-16 04:30N 59°12' E 010°39'816.7
2017-Oct-16 04:00N 59°03' E 010°39'816.2
2017-Oct-16 03:31N 58°55' E 010°39'816.3
2017-Oct-16 03:00N 58°47' E 010°38'816.4
2017-Oct-16 02:30N 58°39' E 010°37'816.5
2017-Oct-16 02:00N 58°31' E 010°38'816.4
2017-Oct-16 01:30N 58°23' E 010°42'2715.7
2017-Oct-15 23:46N 57°60' E 011°10'516.7
2017-Oct-15 23:29N 57°56' E 011°16'816.4
2017-Oct-15 23:01N 57°49' E 011°22'816.6
2017-Oct-15 22:30N 57°41' E 011°27'816.6
2017-Oct-15 22:01N 57°33' E 011°33'816.2
2017-Oct-15 21:30N 57°26' E 011°39'816.5
2017-Oct-15 21:00N 57°19' E 011°46'917.2
2017-Oct-15 20:28N 57°10' E 011°54'917.6
2017-Oct-15 19:58N 57°02' E 012°00'817.2
2017-Oct-15 19:30N 56°55' E 012°07'1116.7
2017-Oct-15 18:48N 56°44' E 012°13'516.9
2017-Oct-15 18:30N 56°39' E 012°15'715.1
2017-Oct-15 18:00N 56°32' E 012°19'815.8
2017-Oct-15 17:30N 56°24' E 012°22'816.5
2017-Oct-15 17:00N 56°16' E 012°26'815.9
2017-Oct-15 16:30N 56°09' E 012°31'815.1
2017-Oct-15 16:01N 56°03' E 012°40'715.0
2017-Oct-15 15:30N 55°56' E 012°43'815.8
2017-Oct-15 15:00N 55°48' E 012°43'7 7.1
2017-Oct-15 14:00N 55°42' E 012°36'0 0.0
2017-Oct-15 13:30N 55°42' E 012°36'0 0.0
2017-Oct-15 13:00N 55°42' E 012°36'0 0.0
2017-Oct-15 12:30N 55°42' E 012°36'0 0.0
2017-Oct-15 12:00N 55°42' E 012°36'0 0.0
2017-Oct-15 11:30N 55°42' E 012°36'0 0.0
2017-Oct-15 11:00N 55°42' E 012°36'0 0.0
2017-Oct-15 10:30N 55°42' E 012°36'0 0.0
2017-Oct-15 10:00N 55°42' E 012°36'0 0.0
2017-Oct-15 09:30N 55°42' E 012°36'0 0.0
2017-Oct-15 09:00N 55°42' E 012°36'0 0.0
2017-Oct-15 08:30N 55°42' E 012°36'0 0.0
2017-Oct-15 08:00N 55°42' E 012°36'0 0.8
2017-Oct-15 07:31N 55°42' E 012°36'510.2
2017-Oct-15 07:00N 55°47' E 012°41'815.7
2017-Oct-15 06:30N 55°54' E 012°39'816.5
2017-Oct-15 06:01N 56°03' E 012°39'815.6
2017-Oct-15 05:30N 56°08' E 012°29'816.2
2017-Oct-15 05:00N 56°16' E 012°25'815.9
2017-Oct-15 04:30N 56°23' E 012°21'816.2
2017-Oct-15 04:00N 56°31' E 012°16'816.7
2017-Oct-15 03:30N 56°39' E 012°12'816.1
2017-Oct-15 03:00N 56°47' E 012°07'816.7
2017-Oct-15 02:30N 56°55' E 012°03'2416.3
2017-Oct-15 01:04N 57°17' E 011°50'116.7
2017-Oct-15 01:00N 57°18' E 011°49'917.3
2017-Oct-15 00:30N 57°25' E 011°40'917.5
2017-Oct-15 00:00N 57°33' E 011°33'917.1
2017-Oct-14 23:30N 57°41' E 011°28'916.9
2017-Oct-14 23:00N 57°49' E 011°22'917.0
2017-Oct-14 22:30N 57°57' E 011°16'816.0
2017-Oct-14 21:58N 58°05' E 011°11'716.1
2017-Oct-14 21:30N 58°12' E 011°06'816.2
2017-Oct-14 21:00N 58°20' E 011°00'816.6
2017-Oct-14 20:30N 58°27' E 010°54'816.8
2017-Oct-14 20:00N 58°35' E 010°47'816.4
2017-Oct-14 19:30N 58°42' E 010°40'816.3
2017-Oct-14 19:00N 58°50' E 010°35'816.2
2017-Oct-14 18:30N 58°58' E 010°36'816.5
2017-Oct-14 18:00N 59°06' E 010°38'816.6
2017-Oct-14 17:30N 59°15' E 010°37'816.3
2017-Oct-14 17:00N 59°23' E 010°34'816.3
2017-Oct-14 16:30N 59°31' E 010°35'816.4
2017-Oct-14 16:00N 59°39' E 010°37'713.6
2017-Oct-14 15:30N 59°45' E 010°33'815.6
2017-Oct-14 15:01N 59°53' E 010°39'3 6.6
2017-Oct-14 14:30N 59°54' E 010°45'0 0.0
2017-Oct-14 13:58N 59°54' E 010°45'0 0.0
2017-Oct-14 13:28N 59°54' E 010°45'0 0.0
2017-Oct-14 12:58N 59°54' E 010°45'0 0.0
2017-Oct-14 12:28N 59°54' E 010°45'0 0.0
2017-Oct-14 11:58N 59°54' E 010°45'0 0.0
2017-Oct-14 11:28N 59°54' E 010°45'0 0.0
2017-Oct-14 10:58N 59°54' E 010°45'0 0.0
2017-Oct-14 10:28N 59°54' E 010°45'0 0.0
2017-Oct-14 09:58N 59°54' E 010°45'0 0.0
2017-Oct-14 09:28N 59°54' E 010°45'0 0.0
2017-Oct-14 08:58N 59°54' E 010°45'0 0.0
2017-Oct-14 08:28N 59°54' E 010°45'0 0.0
2017-Oct-14 07:58N 59°54' E 010°45'0 0.5
2017-Oct-14 07:31N 59°54' E 010°45'510.6
2017-Oct-14 07:00N 59°51' E 010°37'815.5
2017-Oct-14 06:31N 59°43' E 010°35'714.2
2017-Oct-14 06:00N 59°36' E 010°38'816.2
2017-Oct-14 05:30N 59°28' E 010°34'816.3
2017-Oct-14 05:00N 59°20' E 010°36'816.8
2017-Oct-14 04:30N 59°12' E 010°39'816.6
2017-Oct-14 04:00N 59°03' E 010°41'816.0
2017-Oct-14 03:30N 58°56' E 010°43'816.1
2017-Oct-14 03:00N 58°47' E 010°44'816.3
2017-Oct-14 02:30N 58°39' E 010°44'816.6
2017-Oct-14 02:00N 58°31' E 010°45'917.5
2017-Oct-14 01:30N 58°22' E 010°45'917.2
2017-Oct-14 01:00N 58°14' E 010°50'816.3
2017-Oct-14 00:29N 58°07' E 010°58'816.6
2017-Oct-14 00:00N 57°60' E 011°06'916.4
2017-Oct-13 23:28N 57°52' E 011°14'715.9
2017-Oct-13 23:00N 57°45' E 011°18'816.2
2017-Oct-13 22:30N 57°38' E 011°23'816.3
2017-Oct-13 22:00N 57°30' E 011°27'816.6
2017-Oct-13 21:31N 57°22' E 011°32'816.0
2017-Oct-13 21:00N 57°14' E 011°38'816.3
2017-Oct-13 20:30N 57°06' E 011°42'3316.3
2017-Oct-13 18:30N 56°37' E 012°07'1516.0
2017-Oct-13 17:35N 56°24' E 012°18'415.4
2017-Oct-13 17:20N 56°20' E 012°21'616.8
2017-Oct-13 17:00N 56°15' E 012°25'816.7
2017-Oct-13 16:30N 56°08' E 012°32'917.3
2017-Oct-13 16:00N 56°01' E 012°41'816.3
2017-Oct-13 15:30N 55°53' E 012°44'816.3
2017-Oct-13 15:00N 55°45' E 012°41'4 7.5
2017-Oct-13 14:30N 55°42' E 012°36'0 0.0
2017-Oct-13 14:00N 55°42' E 012°36'0 0.0
2017-Oct-13 13:30N 55°42' E 012°36'0 0.0
2017-Oct-13 13:00N 55°42' E 012°36'0 0.0
2017-Oct-13 12:30N 55°42' E 012°36'0 0.0
2017-Oct-13 12:00N 55°42' E 012°36'0 0.0
2017-Oct-13 11:30N 55°42' E 012°36'0 0.0
2017-Oct-13 11:00N 55°42' E 012°36'0 0.0
2017-Oct-13 10:30N 55°42' E 012°36'0 0.0
2017-Oct-13 10:00N 55°42' E 012°36'0 0.0
2017-Oct-13 09:30N 55°42' E 012°36'0 0.0
2017-Oct-13 09:00N 55°42' E 012°36'0 0.0
2017-Oct-13 08:30N 55°42' E 012°36'0 0.0
2017-Oct-13 08:00N 55°42' E 012°36'0 0.7
2017-Oct-13 07:31N 55°42' E 012°36'611.6
2017-Oct-13 07:00N 55°47' E 012°42'714.9
2017-Oct-13 06:30N 55°54' E 012°39'815.7
2017-Oct-13 06:00N 56°02' E 012°39'816.6
2017-Oct-13 05:30N 56°08' E 012°29'816.4
2017-Oct-13 05:00N 56°14' E 012°19'5816.4
2017-Oct-13 01:28N 57°08' E 011°37'817.1
2017-Oct-13 01:00N 57°15' E 011°33'817.0
2017-Oct-13 00:30N 57°23' E 011°27'917.4
2017-Oct-12 23:59N 57°32' E 011°22'817.3
2017-Oct-12 23:30N 57°39' E 011°14'917.6
2017-Oct-12 22:59N 57°47' E 011°08'917.4
2017-Oct-12 22:29N 57°56' E 011°02'815.6
2017-Oct-12 22:00N 58°03' E 010°56'815.5
2017-Oct-12 21:30N 58°10' E 010°52'815.4
2017-Oct-12 21:00N 58°17' E 010°47'814.8
2017-Oct-12 20:28N 58°25' E 010°42'714.8
2017-Oct-12 20:00N 58°31' E 010°37'714.9
2017-Oct-12 19:30N 58°38' E 010°36'816.0
2017-Oct-12 19:00N 58°46' E 010°35'816.4
2017-Oct-12 18:30N 58°55' E 010°36'816.6
2017-Oct-12 18:00N 59°03' E 010°37'917.3
2017-Oct-12 17:30N 59°11' E 010°38'917.4
2017-Oct-12 17:00N 59°20' E 010°35'816.3
2017-Oct-12 16:30N 59°28' E 010°34'917.1
2017-Oct-12 16:00N 59°36' E 010°38'714.6
2017-Oct-12 15:30N 59°43' E 010°34'816.4
2017-Oct-12 15:00N 59°52' E 010°37'5 9.4
2017-Oct-12 14:30N 59°54' E 010°45'0 0.2
2017-Oct-12 14:00N 59°54' E 010°45'0 0.0
2017-Oct-12 13:30N 59°54' E 010°45'0 0.0
2017-Oct-12 13:00N 59°54' E 010°45'0 0.0
2017-Oct-12 12:30N 59°54' E 010°45'0 0.0
2017-Oct-12 12:00N 59°54' E 010°45'0 0.0
2017-Oct-12 11:30N 59°54' E 010°45'0 0.0
2017-Oct-12 11:00N 59°54' E 010°45'0 0.0
2017-Oct-12 10:30N 59°54' E 010°45'0 0.0
2017-Oct-12 10:00N 59°54' E 010°45'0 0.0
2017-Oct-12 09:30N 59°54' E 010°45'0 0.0
2017-Oct-12 09:00N 59°54' E 010°45'0 0.0
2017-Oct-12 08:30N 59°54' E 010°45'0 0.0
2017-Oct-12 08:00N 59°54' E 010°45'0 0.4
2017-Oct-12 07:30N 59°54' E 010°45'611.5
2017-Oct-12 07:00N 59°50' E 010°36'815.3
2017-Oct-12 06:30N 59°43' E 010°35'713.3
2017-Oct-12 06:00N 59°36' E 010°38'714.6
2017-Oct-12 05:30N 59°29' E 010°35'714.9
2017-Oct-12 05:00N 59°22' E 010°35'815.4
2017-Oct-12 04:30N 59°14' E 010°38'815.6
2017-Oct-12 04:00N 59°06' E 010°40'816.2
2017-Oct-12 03:30N 58°58' E 010°42'816.1
2017-Oct-12 03:00N 58°50' E 010°44'815.7
2017-Oct-12 02:30N 58°43' E 010°47'816.1
2017-Oct-12 02:00N 58°35' E 010°51'916.9
2017-Oct-12 01:30N 58°27' E 010°54'816.7
2017-Oct-12 01:00N 58°19' E 010°59'816.0
2017-Oct-12 00:30N 58°11' E 011°04'815.8
2017-Oct-11 23:58N 58°03' E 011°09'816.0
2017-Oct-11 23:30N 57°56' E 011°13'816.0
2017-Oct-11 23:00N 57°48' E 011°18'816.3
2017-Oct-11 22:30N 57°40' E 011°21'816.6
2017-Oct-11 22:01N 57°33' E 011°26'816.4
2017-Oct-11 21:30N 57°25' E 011°31'817.0
2017-Oct-11 21:00N 57°17' E 011°35'816.8
2017-Oct-11 20:30N 57°08' E 011°40'5816.2
2017-Oct-11 16:56N 56°16' E 012°24'82 4.9
2017-Oct-11 00:00N 57°33' E 011°31'816.6
2017-Oct-10 23:30N 57°41' E 011°27'916.8
2017-Oct-10 23:00N 57°49' E 011°22'816.3
2017-Oct-10 22:30N 57°56' E 011°15'816.8
2017-Oct-10 22:00N 58°04' E 011°08'816.8
2017-Oct-10 21:30N 58°11' E 011°01'815.8
2017-Oct-10 21:00N 58°19' E 010°55'815.2
2017-Oct-10 20:30N 58°26' E 010°50'815.3
2017-Oct-10 20:00N 58°33' E 010°47'815.7
2017-Oct-10 19:30N 58°41' E 010°46'  

Dump ship's entire track history